createdAt,value
2018-09-09T00:00:08.856Z,14.10
2018-09-09T00:02:43.466Z,14.10
2018-09-09T00:05:18.067Z,14.10
2018-09-09T00:07:53.000Z,14.10
2018-09-09T00:10:27.478Z,14.10
2018-09-09T00:13:02.048Z,14.00
2018-09-09T00:15:36.902Z,14.00
2018-09-09T00:18:11.396Z,14.00
2018-09-09T00:20:46.012Z,14.00
2018-09-09T00:23:20.739Z,14.00
2018-09-09T00:25:55.776Z,14.00
2018-09-09T00:28:30.089Z,13.90
2018-09-09T00:31:05.021Z,13.90
2018-09-09T00:33:39.896Z,13.90
2018-09-09T00:36:14.541Z,13.80
2018-09-09T00:38:49.214Z,13.70
2018-09-09T00:41:24.341Z,13.70
2018-09-09T00:43:58.564Z,13.70
2018-09-09T00:46:33.336Z,13.70
2018-09-09T00:49:13.784Z,13.60
2018-09-09T00:51:53.813Z,13.60
2018-09-09T00:54:28.077Z,13.60
2018-09-09T00:57:02.776Z,13.50
2018-09-09T00:59:37.501Z,13.50
2018-09-09T01:02:12.207Z,13.50
2018-09-09T01:04:46.653Z,13.50
2018-09-09T01:07:22.477Z,13.40
2018-09-09T01:09:57.249Z,13.40
2018-09-09T01:12:32.016Z,13.40
2018-09-09T01:15:07.382Z,13.30
2018-09-09T01:17:41.847Z,13.30
2018-09-09T01:20:16.444Z,13.30
2018-09-09T01:22:51.321Z,13.30
2018-09-09T01:25:25.924Z,13.20
2018-09-09T01:28:00.848Z,13.20
2018-09-09T01:30:35.681Z,13.20
2018-09-09T01:33:10.204Z,13.20
2018-09-09T01:35:45.212Z,13.10
2018-09-09T01:38:19.761Z,13.10
2018-09-09T01:40:54.658Z,13.10
2018-09-09T01:43:29.157Z,13.10
2018-09-09T01:46:03.809Z,13.10
2018-09-09T01:48:38.536Z,13.00
2018-09-09T01:51:13.197Z,13.00
2018-09-09T01:53:47.996Z,13.00
2018-09-09T01:56:22.889Z,13.00
2018-09-09T01:58:57.269Z,12.90
2018-09-09T02:01:32.058Z,13.00
2018-09-09T02:04:06.969Z,12.90
2018-09-09T02:06:41.772Z,12.90
2018-09-09T02:09:17.333Z,12.90
2018-09-09T02:11:51.589Z,13.00
2018-09-09T02:14:26.568Z,13.00
2018-09-09T02:17:01.131Z,12.90
2018-09-09T02:19:36.113Z,12.90
2018-09-09T02:22:10.636Z,12.80
2018-09-09T02:24:45.336Z,12.80
2018-09-09T02:27:19.908Z,12.80
2018-09-09T02:29:54.834Z,12.80
2018-09-09T02:32:29.317Z,12.80
2018-09-09T02:35:04.124Z,12.80
2018-09-09T02:37:38.820Z,12.80
2018-09-09T02:40:13.492Z,12.80
2018-09-09T02:42:48.043Z,12.80
2018-09-09T02:45:22.921Z,12.80
2018-09-09T02:47:57.510Z,12.70
2018-09-09T02:50:32.329Z,12.70
2018-09-09T02:53:07.191Z,12.70
2018-09-09T02:55:44.372Z,12.60
2018-09-09T02:58:18.757Z,12.60
2018-09-09T03:00:53.385Z,12.60
2018-09-09T03:03:28.026Z,12.60
2018-09-09T03:06:02.608Z,12.60
2018-09-09T03:08:37.392Z,12.60
2018-09-09T03:11:13.598Z,12.60
2018-09-09T03:13:47.805Z,12.50
2018-09-09T03:16:22.625Z,12.50
2018-09-09T03:18:57.401Z,12.50
2018-09-09T03:21:32.371Z,12.50
2018-09-09T03:24:06.979Z,12.50
2018-09-09T03:26:41.601Z,12.50
2018-09-09T03:29:16.408Z,12.50
2018-09-09T03:31:51.451Z,12.50
2018-09-09T03:34:26.109Z,12.40
2018-09-09T03:37:00.676Z,12.40
2018-09-09T03:39:35.833Z,12.40
2018-09-09T03:42:10.217Z,12.40
2018-09-09T03:44:45.049Z,12.40
2018-09-09T03:47:19.814Z,12.40
2018-09-09T03:49:54.588Z,12.30
2018-09-09T03:52:29.175Z,12.40
2018-09-09T03:55:04.030Z,12.30
2018-09-09T03:57:38.380Z,12.30
2018-09-09T04:00:13.082Z,12.30
2018-09-09T04:02:48.076Z,12.40
2018-09-09T04:05:22.585Z,12.40
2018-09-09T04:07:57.508Z,12.40
2018-09-09T04:10:32.144Z,12.30
2018-09-09T04:13:07.186Z,12.30
2018-09-09T04:15:41.672Z,12.40
2018-09-09T04:18:16.409Z,12.30
2018-09-09T04:20:51.367Z,12.30
2018-09-09T04:23:25.849Z,12.30
2018-09-09T04:26:00.951Z,12.30
2018-09-09T04:28:35.257Z,12.30
2018-09-09T04:31:10.279Z,12.30
2018-09-09T04:33:44.861Z,12.30
2018-09-09T04:36:19.389Z,12.30
2018-09-09T04:38:54.229Z,12.20
2018-09-09T04:41:28.954Z,12.20
2018-09-09T04:44:04.114Z,12.30
2018-09-09T04:46:38.916Z,12.20
2018-09-09T04:49:13.151Z,12.20
2018-09-09T04:51:47.846Z,12.20
2018-09-09T04:54:22.333Z,12.20
2018-09-09T04:56:56.961Z,12.20
2018-09-09T04:59:31.860Z,12.20
2018-09-09T05:02:06.526Z,12.20
2018-09-09T05:04:41.425Z,12.20
2018-09-09T05:07:15.938Z,12.20
2018-09-09T05:09:50.582Z,12.20
2018-09-09T05:12:25.285Z,12.20
2018-09-09T05:14:59.828Z,12.20
2018-09-09T05:17:34.780Z,12.30
2018-09-09T05:20:09.668Z,12.30
2018-09-09T05:22:43.992Z,12.40
2018-09-09T05:25:18.929Z,12.40
2018-09-09T05:27:53.408Z,12.50
2018-09-09T05:30:27.905Z,12.50
2018-09-09T05:33:02.563Z,12.60
2018-09-09T05:35:37.454Z,12.70
2018-09-09T05:38:12.225Z,12.80
2018-09-09T05:40:46.833Z,12.90
2018-09-09T05:43:21.654Z,13.00
2018-09-09T05:45:56.457Z,13.10
2018-09-09T05:48:31.370Z,13.30
2018-09-09T05:51:06.904Z,13.40
2018-09-09T05:53:41.908Z,13.50
2018-09-09T05:56:16.557Z,13.60
2018-09-09T05:58:51.216Z,13.60
2018-09-09T06:01:26.101Z,13.80
2018-09-09T06:04:00.793Z,14.00
2018-09-09T06:06:35.534Z,14.20
2018-09-09T06:09:10.992Z,14.50
2018-09-09T06:11:46.119Z,14.80
2018-09-09T06:14:20.620Z,15.30
2018-09-09T06:16:55.271Z,15.90
2018-09-09T06:19:30.267Z,16.70
2018-09-09T06:22:04.727Z,17.40
2018-09-09T06:24:39.504Z,18.10
2018-09-09T06:27:14.357Z,18.90
2018-09-09T06:29:48.972Z,19.50
2018-09-09T06:32:23.619Z,20.10
2018-09-09T06:34:58.368Z,20.60
2018-09-09T06:37:33.163Z,21.10
2018-09-09T06:40:08.054Z,21.40
2018-09-09T06:42:42.859Z,21.60
2018-09-09T06:45:17.566Z,21.80
2018-09-09T06:47:52.552Z,22.10
2018-09-09T06:50:27.156Z,22.20
2018-09-09T06:53:01.934Z,22.40
2018-09-09T06:55:36.701Z,22.50
2018-09-09T06:58:11.640Z,22.60
2018-09-09T07:00:46.573Z,22.60
2018-09-09T07:03:21.477Z,22.60
2018-09-09T07:05:56.248Z,22.60
2018-09-09T07:08:31.152Z,22.70
2018-09-09T07:11:05.968Z,22.60
2018-09-09T07:13:40.653Z,22.60
2018-09-09T07:16:15.596Z,22.60
2018-09-09T07:18:50.098Z,22.50
2018-09-09T07:21:25.117Z,22.50
2018-09-09T07:23:59.538Z,22.60
2018-09-09T07:26:34.276Z,22.70
2018-09-09T07:29:09.020Z,22.80
2018-09-09T07:31:43.565Z,22.90
2018-09-09T07:34:18.441Z,22.90
2018-09-09T07:36:53.089Z,22.90
2018-09-09T07:39:27.703Z,23.00
2018-09-09T07:42:03.393Z,23.00
2018-09-09T07:44:38.347Z,23.10
2018-09-09T07:47:13.000Z,23.10
2018-09-09T07:49:47.857Z,23.10
2018-09-09T07:52:22.276Z,23.20
2018-09-09T07:54:57.052Z,23.10
2018-09-09T07:57:32.309Z,23.10
2018-09-09T08:00:07.739Z,23.20
2018-09-09T08:02:42.369Z,23.30
2018-09-09T08:05:17.335Z,23.40
2018-09-09T08:07:52.126Z,23.50
2018-09-09T08:10:26.396Z,23.60
2018-09-09T08:13:01.184Z,23.70
2018-09-09T08:15:35.996Z,23.70
2018-09-09T08:18:10.704Z,23.90
2018-09-09T08:20:45.740Z,24.10
2018-09-09T08:23:20.459Z,24.20
2018-09-09T08:25:55.460Z,24.30
2018-09-09T08:28:29.904Z,24.30
2018-09-09T08:31:04.780Z,24.40
2018-09-09T08:33:39.425Z,24.50
2018-09-09T08:36:14.409Z,24.50
2018-09-09T08:38:48.893Z,24.60
2018-09-09T08:41:23.640Z,24.60
2018-09-09T08:43:58.100Z,24.60
2018-09-09T08:46:33.026Z,24.60
2018-09-09T08:49:07.508Z,24.70
2018-09-09T08:51:42.165Z,24.70
2018-09-09T08:54:16.918Z,24.80
2018-09-09T08:56:51.719Z,24.90
2018-09-09T08:59:26.344Z,25.00
2018-09-09T09:02:00.993Z,25.00
2018-09-09T09:04:36.043Z,25.10
2018-09-09T09:07:10.537Z,25.20
2018-09-09T09:09:45.200Z,25.30
2018-09-09T09:12:20.325Z,25.50
2018-09-09T09:14:54.984Z,25.70
2018-09-09T09:17:29.688Z,25.70
2018-09-09T09:20:04.487Z,25.80
2018-09-09T09:22:39.117Z,25.90
2018-09-09T09:25:13.779Z,26.10
2018-09-09T09:27:48.668Z,26.20
2018-09-09T09:30:23.293Z,26.40
2018-09-09T09:32:57.871Z,26.60
2018-09-09T09:35:38.237Z,26.70
2018-09-09T09:38:12.560Z,26.70
2018-09-09T09:40:47.603Z,26.70
2018-09-09T09:43:22.176Z,26.90
2018-09-09T09:45:57.679Z,27.00
2018-09-09T09:48:32.469Z,27.10
2018-09-09T09:51:07.325Z,27.30
2018-09-09T09:53:41.986Z,27.30
2018-09-09T09:56:16.620Z,27.50
2018-09-09T09:58:51.419Z,27.60
2018-09-09T10:01:26.097Z,27.60
2018-09-09T10:04:00.808Z,27.70
2018-09-09T10:06:35.393Z,27.70
2018-09-09T10:09:10.158Z,27.90
2018-09-09T10:11:44.828Z,28.00
2018-09-09T10:14:19.664Z,28.10
2018-09-09T10:16:54.388Z,28.10
2018-09-09T10:19:29.185Z,28.10
2018-09-09T10:22:03.914Z,28.00
2018-09-09T10:24:38.809Z,27.90
2018-09-09T10:27:14.032Z,27.90
2018-09-09T10:29:48.400Z,27.70
2018-09-09T10:32:23.212Z,27.50
2018-09-09T10:34:58.534Z,27.40
2018-09-09T10:37:32.756Z,27.30
2018-09-09T10:40:07.747Z,27.20
2018-09-09T10:42:42.337Z,27.10
2018-09-09T10:45:17.348Z,27.10
2018-09-09T10:47:52.307Z,27.00
2018-09-09T10:50:26.961Z,26.90
2018-09-09T10:53:01.724Z,26.80
2018-09-09T10:55:36.567Z,26.70
2018-09-09T10:58:11.060Z,26.70
2018-09-09T11:00:46.217Z,26.60
2018-09-09T11:03:20.596Z,26.40
2018-09-09T11:05:55.614Z,26.30
2018-09-09T11:08:29.964Z,26.20
2018-09-09T11:11:04.585Z,26.20
2018-09-09T11:13:39.228Z,26.20
2018-09-09T11:16:13.996Z,26.20
2018-09-09T11:18:48.643Z,26.20
2018-09-09T11:21:23.864Z,26.10
2018-09-09T11:23:58.234Z,26.10
2018-09-09T11:26:33.217Z,26.10
2018-09-09T11:29:07.645Z,26.00
2018-09-09T11:31:42.440Z,26.00
2018-09-09T11:34:17.036Z,26.00
2018-09-09T11:36:52.259Z,26.00
2018-09-09T11:39:26.722Z,25.90
2018-09-09T11:42:01.337Z,25.80
2018-09-09T11:44:35.873Z,25.80
2018-09-09T11:47:10.840Z,25.80
2018-09-09T11:49:45.349Z,25.80
2018-09-09T11:52:20.324Z,25.80
2018-09-09T11:54:55.112Z,25.80
2018-09-09T11:57:29.905Z,25.80
2018-09-09T12:00:05.236Z,25.80
2018-09-09T12:02:39.471Z,25.80
2018-09-09T12:05:13.896Z,25.80
2018-09-09T12:07:48.524Z,25.70
2018-09-09T12:10:23.245Z,25.70
2018-09-09T12:12:57.921Z,25.70
2018-09-09T12:15:33.060Z,25.70
2018-09-09T12:18:08.082Z,25.60
2018-09-09T12:20:42.577Z,25.60
2018-09-09T12:23:17.237Z,25.60
2018-09-09T12:25:51.980Z,25.50
2018-09-09T12:28:26.648Z,25.50
2018-09-09T12:31:01.128Z,25.50
2018-09-09T12:33:35.730Z,25.50
2018-09-09T12:36:10.833Z,25.60
2018-09-09T12:38:45.123Z,25.50
2018-09-09T12:41:19.725Z,25.50
2018-09-09T12:44:00.225Z,25.50
2018-09-09T12:46:40.962Z,25.40
2018-09-09T12:49:16.396Z,25.40
2018-09-09T12:51:50.975Z,25.30
2018-09-09T12:54:25.773Z,25.20
2018-09-09T12:57:00.618Z,25.10
2018-09-09T12:59:35.884Z,25.00
2018-09-09T13:02:10.509Z,24.90
2018-09-09T13:04:45.477Z,24.70
2018-09-09T13:07:19.860Z,24.70
2018-09-09T13:09:55.068Z,24.50
2018-09-09T13:12:34.208Z,24.30
2018-09-09T13:15:09.077Z,24.20
2018-09-09T13:17:44.167Z,24.20
2018-09-09T13:20:18.981Z,24.10
2018-09-09T13:22:53.685Z,24.00
2018-09-09T13:25:28.321Z,24.00
2018-09-09T13:28:03.698Z,23.90
2018-09-09T13:30:38.912Z,23.90
2018-09-09T13:33:13.461Z,23.90
2018-09-09T13:35:48.142Z,23.90
2018-09-09T13:38:23.785Z,23.80
2018-09-09T13:40:58.452Z,23.80
2018-09-09T13:43:33.261Z,23.90
2018-09-09T13:46:08.113Z,23.90
2018-09-09T13:48:42.493Z,23.90
2018-09-09T13:51:17.374Z,23.90
2018-09-09T13:53:52.608Z,23.90
2018-09-09T13:56:27.108Z,23.90
2018-09-09T13:59:01.976Z,23.80
2018-09-09T14:01:37.091Z,23.80
2018-09-09T14:04:11.807Z,23.70
2018-09-09T14:06:46.301Z,23.70
2018-09-09T14:09:21.136Z,23.70
2018-09-09T14:11:56.092Z,23.70
2018-09-09T14:14:30.606Z,23.70
2018-09-09T14:17:05.700Z,23.70
2018-09-09T14:19:40.241Z,23.70
2018-09-09T14:22:15.342Z,23.70
2018-09-09T14:24:50.242Z,23.70
2018-09-09T14:27:24.915Z,23.70
2018-09-09T14:29:59.445Z,23.70
2018-09-09T14:32:34.237Z,23.70
2018-09-09T14:35:09.184Z,23.70
2018-09-09T14:37:43.758Z,23.70
2018-09-09T14:40:18.185Z,23.60
2018-09-09T14:42:53.227Z,23.60
2018-09-09T14:45:27.632Z,23.60
2018-09-09T14:48:02.300Z,23.60
2018-09-09T14:50:36.794Z,23.60
2018-09-09T14:53:11.890Z,23.50
2018-09-09T14:55:46.408Z,23.50
2018-09-09T14:58:21.439Z,23.50
2018-09-09T15:00:56.052Z,23.50
2018-09-09T15:03:30.765Z,23.50
2018-09-09T15:06:05.508Z,23.40
2018-09-09T15:08:40.165Z,23.40
2018-09-09T15:11:15.217Z,23.40
2018-09-09T15:13:49.917Z,23.30
2018-09-09T15:16:24.625Z,23.30
2018-09-09T15:18:59.334Z,23.30
2018-09-09T15:21:34.028Z,23.30
2018-09-09T15:24:09.244Z,23.20
2018-09-09T15:26:44.241Z,23.20
2018-09-09T15:29:18.578Z,23.10
2018-09-09T15:31:53.704Z,23.10
2018-09-09T15:34:28.322Z,23.10
2018-09-09T15:37:03.160Z,23.00
2018-09-09T15:39:38.308Z,23.00
2018-09-09T15:42:13.236Z,22.90
2018-09-09T15:44:47.644Z,22.80
2018-09-09T15:47:22.816Z,22.80
2018-09-09T15:49:57.209Z,22.80
2018-09-09T15:52:31.964Z,22.80
2018-09-09T15:55:06.831Z,22.70
2018-09-09T15:57:42.231Z,22.70
2018-09-09T16:00:17.078Z,22.60
2018-09-09T16:02:51.928Z,22.60
2018-09-09T16:05:26.587Z,22.60
2018-09-09T16:08:01.214Z,22.50
2018-09-09T16:10:35.952Z,22.50
2018-09-09T16:13:10.617Z,22.40
2018-09-09T16:15:45.605Z,22.40
2018-09-09T16:18:20.224Z,22.30
2018-09-09T16:20:55.150Z,22.30
2018-09-09T16:23:29.887Z,22.30
2018-09-09T16:26:05.237Z,22.20
2018-09-09T16:28:39.715Z,22.20
2018-09-09T16:31:14.361Z,22.20
2018-09-09T16:33:49.381Z,22.10
2018-09-09T16:36:23.928Z,22.10
2018-09-09T16:38:58.969Z,22.00
2018-09-09T16:41:33.666Z,22.00
2018-09-09T16:44:08.389Z,21.90
2018-09-09T16:46:43.203Z,21.90
2018-09-09T16:49:17.909Z,21.80
2018-09-09T16:51:52.849Z,21.80
2018-09-09T16:54:27.576Z,21.70
2018-09-09T16:57:02.333Z,21.60
2018-09-09T16:59:37.341Z,21.60
2018-09-09T17:02:11.848Z,21.50
2018-09-09T17:04:46.501Z,21.50
2018-09-09T17:07:21.705Z,21.40
2018-09-09T17:09:56.031Z,21.40
2018-09-09T17:12:30.820Z,21.30
2018-09-09T17:15:05.509Z,21.20
2018-09-09T17:17:40.044Z,21.10
2018-09-09T17:20:14.937Z,21.10
2018-09-09T17:22:49.578Z,21.00
2018-09-09T17:25:24.281Z,20.90
2018-09-09T17:27:59.221Z,20.80
2018-09-09T17:30:33.654Z,20.80
2018-09-09T17:33:08.644Z,20.70
2018-09-09T17:35:43.259Z,20.60
2018-09-09T17:38:18.159Z,20.50
2018-09-09T17:40:52.665Z,20.40
2018-09-09T17:43:27.518Z,20.30
2018-09-09T17:46:02.577Z,20.20
2018-09-09T17:48:37.029Z,20.10
2018-09-09T17:51:11.836Z,20.00
2018-09-09T17:53:46.625Z,20.00
2018-09-09T17:56:21.391Z,19.90
2018-09-09T17:58:56.025Z,19.80
2018-09-09T18:01:30.745Z,19.70
2018-09-09T18:04:06.152Z,19.60
2018-09-09T18:06:40.451Z,19.60
2018-09-09T18:09:15.160Z,19.50
2018-09-09T18:11:49.858Z,19.40
2018-09-09T18:14:24.780Z,19.40
2018-09-09T18:16:59.412Z,19.30
2018-09-09T18:19:34.045Z,19.20
2018-09-09T18:22:08.757Z,19.10
2018-09-09T18:24:43.465Z,19.00
2018-09-09T18:27:17.916Z,18.90
2018-09-09T18:29:52.584Z,18.90
2018-09-09T18:32:27.337Z,18.80
2018-09-09T18:35:02.273Z,18.70
2018-09-09T18:37:36.573Z,18.70
2018-09-09T18:40:11.156Z,18.70
2018-09-09T18:42:46.200Z,18.60
2018-09-09T18:45:20.320Z,18.60
2018-09-09T18:47:55.225Z,18.50
2018-09-09T18:50:29.513Z,18.40
2018-09-09T18:53:04.454Z,18.30
2018-09-09T18:55:39.580Z,18.30
2018-09-09T18:58:14.813Z,18.20
2018-09-09T19:00:49.434Z,18.20
2018-09-09T19:03:24.801Z,18.10
2018-09-09T19:05:59.463Z,18.10
2018-09-09T19:08:34.400Z,18.00
2018-09-09T19:11:09.412Z,18.00
2018-09-09T19:13:44.265Z,17.90
2018-09-09T19:16:19.203Z,17.80
2018-09-09T19:18:54.067Z,17.80
2018-09-09T19:21:28.865Z,17.70
2018-09-09T19:24:03.731Z,17.60
2018-09-09T19:26:38.528Z,17.60
2018-09-09T19:29:12.933Z,17.60
2018-09-09T19:31:47.698Z,17.50
2018-09-09T19:34:22.318Z,17.50
2018-09-09T19:36:57.048Z,17.40
2018-09-09T19:39:31.677Z,17.40
2018-09-09T19:42:06.741Z,17.40
2018-09-09T19:44:41.094Z,17.30
2018-09-09T19:47:15.833Z,17.30
2018-09-09T19:49:50.596Z,17.20
2018-09-09T19:52:25.336Z,17.20
2018-09-09T19:55:00.324Z,17.10
2018-09-09T19:57:34.817Z,17.10
2018-09-09T20:00:09.496Z,17.10
2018-09-09T20:02:44.382Z,17.00
2018-09-09T20:05:19.268Z,16.90
2018-09-09T20:07:53.835Z,16.90
2018-09-09T20:10:28.573Z,16.80
2018-09-09T20:13:03.784Z,16.80
2018-09-09T20:15:38.571Z,16.80
2018-09-09T20:18:13.345Z,16.70
2018-09-09T20:20:48.277Z,16.70
2018-09-09T20:23:22.961Z,16.70
2018-09-09T20:25:57.936Z,16.60
2018-09-09T20:28:33.009Z,16.60
2018-09-09T20:31:07.659Z,16.50
2018-09-09T20:33:42.441Z,16.50
2018-09-09T20:36:17.424Z,16.50
2018-09-09T20:38:51.851Z,16.40
2018-09-09T20:41:26.380Z,16.40
2018-09-09T20:44:01.159Z,16.40
2018-09-09T20:46:36.238Z,16.40
2018-09-09T20:49:10.853Z,16.30
2018-09-09T20:51:45.378Z,16.30
2018-09-09T20:54:20.093Z,16.30
2018-09-09T20:56:54.854Z,16.20
2018-09-09T20:59:29.461Z,16.20
2018-09-09T21:02:04.272Z,16.20
2018-09-09T21:04:39.265Z,16.10
2018-09-09T21:07:13.679Z,16.10
2018-09-09T21:09:48.413Z,16.10
2018-09-09T21:12:23.725Z,16.00
2018-09-09T21:15:02.080Z,16.00
2018-09-09T21:17:38.164Z,16.00
2018-09-09T21:20:13.045Z,16.00
2018-09-09T21:22:47.772Z,15.90
2018-09-09T21:25:22.734Z,15.90
2018-09-09T21:27:57.312Z,15.90
2018-09-09T21:30:32.070Z,15.80
2018-09-09T21:33:06.864Z,15.80
2018-09-09T21:35:41.464Z,15.80
2018-09-09T21:38:16.120Z,15.80
2018-09-09T21:40:51.052Z,15.70
2018-09-09T21:43:25.420Z,15.70
2018-09-09T21:46:00.097Z,15.70
2018-09-09T21:48:34.772Z,15.70
2018-09-09T21:51:09.384Z,15.70
2018-09-09T21:53:44.545Z,15.70
2018-09-09T21:56:18.808Z,15.70
2018-09-09T21:58:53.483Z,15.70
2018-09-09T22:01:34.075Z,15.70
2018-09-09T22:04:08.696Z,15.60
2018-09-09T22:06:43.004Z,15.60
2018-09-09T22:09:17.516Z,15.60
2018-09-09T22:11:52.508Z,15.50
2018-09-09T22:14:27.672Z,15.50
2018-09-09T22:17:02.164Z,15.50
2018-09-09T22:19:36.649Z,15.40
2018-09-09T22:22:11.233Z,15.40
2018-09-09T22:24:46.153Z,15.40
2018-09-09T22:27:21.475Z,15.40
2018-09-09T22:29:56.000Z,15.30
2018-09-09T22:32:30.333Z,15.30
2018-09-09T22:35:05.244Z,15.30
2018-09-09T22:37:39.915Z,15.30
2018-09-09T22:40:14.924Z,15.20
2018-09-09T22:42:50.020Z,15.20
2018-09-09T22:45:24.177Z,15.20
2018-09-09T22:47:58.950Z,15.10
2018-09-09T22:50:33.812Z,15.10
2018-09-09T22:53:08.927Z,15.10
2018-09-09T22:55:43.191Z,15.00
2018-09-09T22:58:17.876Z,15.00
2018-09-09T23:00:52.543Z,15.00
2018-09-09T23:03:27.414Z,14.90
2018-09-09T23:06:02.020Z,14.90
2018-09-09T23:08:36.560Z,14.90
2018-09-09T23:11:11.413Z,14.90
2018-09-09T23:13:46.352Z,14.80
2018-09-09T23:16:20.595Z,14.80
2018-09-09T23:18:55.216Z,14.80
2018-09-09T23:21:30.017Z,14.80
2018-09-09T23:24:04.967Z,14.70
2018-09-09T23:26:39.420Z,14.80
2018-09-09T23:29:14.028Z,14.70
2018-09-09T23:31:49.059Z,14.70
2018-09-09T23:34:23.634Z,14.70
2018-09-09T23:36:58.376Z,14.60
2018-09-09T23:39:33.276Z,14.60
2018-09-09T23:42:07.950Z,14.60
2018-09-09T23:44:42.797Z,14.60
2018-09-09T23:47:17.921Z,14.50
2018-09-09T23:49:52.430Z,14.50
2018-09-09T23:52:26.877Z,14.50
2018-09-09T23:55:01.660Z,14.50
2018-09-09T23:57:36.166Z,14.50
